Time;durP1;ratioP1;P1;durP2;ratioP2;P2;SDS_P1;SDS_P2;PMS_P1;PMS_P2;Temp;Humidity;BMP_temperature;BMP_pressure;BME280_temperature;BME280_humidity;BME280_pressure;Samples;Min_cycle;Max_cycle;Signal;HPM_P1;HPM_P2
2024/01/03 00:00:34;;;;;;;;;;;16.20;83.00;;;;;;5072321;28;20268;-74
2024/01/03 00:02:59;;;;;;;;;;;16.20;82.60;;;;;;5072597;28;19921;-74
2024/01/03 00:05:28;;;;;;;;;;;16.40;83.20;;;;;;5072478;28;19966;-74
2024/01/03 00:07:54;;;;;;;;;;;16.10;82.60;;;;;;5072454;28;20260;-74
2024/01/03 00:10:40;;;;;;;;;;;16.30;83.10;;;;;;5072410;28;19953;-74
2024/01/03 00:13:25;;;;;;;;;;;16.20;77.70;;;;;;5072181;28;19909;-75
2024/01/03 00:16:13;;;;;;;;;;;16.10;83.20;;;;;;5072043;28;19995;-74
2024/01/03 00:18:44;;;;;;;;;;;16.10;82.60;;;;;;5071999;28;19921;-74
2024/01/03 00:21:10;;;;;;;;;;;16.20;77.70;;;;;;5072056;28;19908;-74
2024/01/03 00:23:42;;;;;;;;;;;16.10;82.60;;;;;;5072074;28;19954;-75
2024/01/03 00:26:08;;;;;;;;;;;16.20;78.00;;;;;;5072007;28;19915;-74
2024/01/03 00:28:34;;;;;;;;;;;16.30;82.30;;;;;;5071965;28;19909;-74
2024/01/03 00:31:00;;;;;;;;;;;16.10;82.60;;;;;;5072512;28;19915;-74
2024/01/03 00:33:25;;;;;;;;;;;16.20;82.80;;;;;;5071891;28;19915;-74
2024/01/03 00:35:54;;;;;;;;;;;16.10;82.80;;;;;;5072035;28;19935;-74
2024/01/03 00:38:20;;;;;;;;;;;16.10;79.90;;;;;;5071756;28;20470;-74
2024/01/03 00:40:55;;;;;;;;;;;16.10;82.30;;;;;;5071923;28;19944;-74
2024/01/03 00:43:21;;;;;;;;;;;16.10;82.80;;;;;;5071881;28;19908;-74
2024/01/03 00:45:48;;;;;;;;;;;16.10;82.90;;;;;;5071993;28;19908;-75
2024/01/03 00:48:14;;;;;;;;;;;16.20;83.10;;;;;;5073493;28;19908;-74
2024/01/03 00:50:39;;;;;;;;;;;16.10;82.60;;;;;;5075602;28;19944;-74
2024/01/03 00:53:05;;;;;;;;;;;16.10;82.60;;;;;;5075458;28;19931;-75
2024/01/03 00:55:30;;;;;;;;;;;16.20;82.80;;;;;;5075410;28;19951;-74
2024/01/03 00:57:56;;;;;;;;;;;16.10;82.90;;;;;;5075328;28;19916;-74
2024/01/03 01:00:22;;;;;;;;;;;16.10;83.00;;;;;;5075740;28;19908;-74
2024/01/03 01:02:47;;;;;;;;;;;16.00;82.40;;;;;;5075037;28;19948;-74
2024/01/03 01:05:13;;;;;;;;;;;16.10;83.20;;;;;;5075321;28;19909;-74
2024/01/03 01:07:38;;;;;;;;;;;16.00;82.70;;;;;;5075171;28;19920;-74
2024/01/03 01:10:04;;;;;;;;;;;16.20;82.90;;;;;;5075171;28;20371;-74
2024/01/03 01:12:29;;;;;;;;;;;16.00;81.70;;;;;;5074960;28;19999;-74
2024/01/03 01:14:55;;;;;;;;;;;16.10;82.90;;;;;;5075127;28;20011;-74
2024/01/03 01:17:21;;;;;;;;;;;16.00;83.10;;;;;;5074832;28;19920;-74
2024/01/03 01:19:47;;;;;;;;;;;16.10;83.00;;;;;;5075277;28;19909;-75
2024/01/03 01:22:13;;;;;;;;;;;16.00;82.70;;;;;;5075170;28;19912;-75
2024/01/03 01:24:38;;;;;;;;;;;16.10;82.80;;;;;;5075140;28;19973;-75
2024/01/03 01:27:04;;;;;;;;;;;16.00;82.60;;;;;;5074818;28;20333;-74
2024/01/03 01:29:30;;;;;;;;;;;16.40;82.80;;;;;;5075606;28;19916;-74
2024/01/03 01:31:56;;;;;;;;;;;16.00;82.40;;;;;;5074969;28;19948;-74
2024/01/03 01:34:22;;;;;;;;;;;16.00;82.40;;;;;;5057072;28;20350;-74
2024/01/03 01:36:48;;;;;;;;;;;16.00;83.10;;;;;;5074889;28;20227;-74
2024/01/03 01:39:14;;;;;;;;;;;16.00;82.40;;;;;;5074840;28;20337;-74
2024/01/03 01:41:40;;;;;;;;;;;16.10;82.80;;;;;;5074894;28;19909;-74
2024/01/03 01:44:06;;;;;;;;;;;15.90;82.40;;;;;;5074838;28;19916;-74
2024/01/03 01:46:32;;;;;;;;;;;16.00;83.00;;;;;;5074665;28;19931;-74
2024/01/03 01:48:58;;;;;;;;;;;16.00;82.90;;;;;;5074612;28;20499;-74
2024/01/03 01:51:24;;;;;;;;;;;15.90;82.40;;;;;;5074733;28;19916;-74
2024/01/03 01:53:50;;;;;;;;;;;16.00;82.30;;;;;;5074387;28;20387;-74
2024/01/03 01:56:17;;;;;;;;;;;15.90;82.50;;;;;;5074792;28;19909;-74
2024/01/03 01:58:44;;;;;;;;;;;16.00;83.00;;;;;;5073939;28;19917;-74
2024/01/03 02:01:10;;;;;;;;;;;15.90;82.40;;;;;;5074027;28;19962;-74
2024/01/03 02:03:36;;;;;;;;;;;15.90;82.20;;;;;;5073972;28;19925;-74
2024/01/03 02:06:03;;;;;;;;;;;15.90;82.60;;;;;;5074220;28;20283;-74
2024/01/03 02:08:30;;;;;;;;;;;15.90;82.90;;;;;;5074146;28;19912;-74
2024/01/03 02:10:55;;;;;;;;;;;16.00;83.30;;;;;;5074357;28;19978;-74
2024/01/03 02:13:21;;;;;;;;;;;15.90;83.40;;;;;;5074213;28;20347;-74
2024/01/03 02:15:46;;;;;;;;;;;16.00;83.30;;;;;;5074226;28;19962;-74
2024/01/03 02:18:12;;;;;;;;;;;15.90;83.30;;;;;;5073872;28;19916;-74
2024/01/03 02:20:38;;;;;;;;;;;16.00;83.70;;;;;;5074055;28;19931;-74
2024/01/03 02:23:03;;;;;;;;;;;16.00;83.10;;;;;;5073910;28;20052;-76
2024/01/03 02:25:29;;;;;;;;;;;15.90;83.30;;;;;;5073770;28;19912;-74
2024/01/03 02:27:54;;;;;;;;;;;16.00;83.80;;;;;;5073655;28;19915;-76
2024/01/03 02:30:20;;;;;;;;;;;16.00;83.70;;;;;;5073683;28;19908;-74
2024/01/03 02:32:45;;;;;;;;;;;15.90;82.90;;;;;;5073434;28;19999;-74
2024/01/03 02:35:11;;;;;;;;;;;15.90;83.60;;;;;;5073631;28;19942;-74
2024/01/03 02:37:36;;;;;;;;;;;16.00;83.70;;;;;;5073471;28;19916;-74
2024/01/03 02:40:02;;;;;;;;;;;16.00;83.30;;;;;;5074097;28;19908;-76
2024/01/03 02:42:27;;;;;;;;;;;16.00;83.20;;;;;;5073557;28;20406;-76
2024/01/03 02:44:53;;;;;;;;;;;15.90;83.30;;;;;;5073910;28;19909;-76
2024/01/03 02:47:18;;;;;;;;;;;15.90;83.60;;;;;;5073301;28;20003;-74
2024/01/03 02:49:44;;;;;;;;;;;16.00;83.30;;;;;;5073285;28;19931;-74
2024/01/03 02:52:09;;;;;;;;;;;16.00;83.70;;;;;;5073322;28;19935;-74
2024/01/03 02:54:35;;;;;;;;;;;16.00;83.60;;;;;;5073201;28;19996;-74
2024/01/03 02:57:00;;;;;;;;;;;16.00;83.30;;;;;;5073064;28;19912;-73
2024/01/03 02:59:26;;;;;;;;;;;15.90;83.70;;;;;;5073058;28;19924;-73
2024/01/03 03:01:51;;;;;;;;;;;16.00;83.10;;;;;;5072860;28;19952;-74
2024/01/03 03:04:17;;;;;;;;;;;16.00;83.50;;;;;;5072797;28;19971;-74
2024/01/03 03:06:42;;;;;;;;;;;15.90;83.70;;;;;;5072843;28;20029;-74
2024/01/03 03:09:08;;;;;;;;;;;15.90;83.60;;;;;;5072937;28;19912;-74
2024/01/03 03:11:33;;;;;;;;;;;16.10;83.60;;;;;;5073211;28;19909;-74
2024/01/03 03:13:59;;;;;;;;;;;16.00;83.70;;;;;;5072851;28;19909;-74
2024/01/03 03:16:25;;;;;;;;;;;15.90;83.70;;;;;;5055044;28;20276;-74
2024/01/03 03:18:51;;;;;;;;;;;16.10;83.50;;;;;;5072701;28;20363;-74
2024/01/03 03:21:16;;;;;;;;;;;15.90;84.40;;;;;;5072905;28;19916;-74
2024/01/03 03:23:42;;;;;;;;;;;16.00;83.50;;;;;;5072785;28;19908;-74
2024/01/03 03:26:07;;;;;;;;;;;15.90;83.30;;;;;;5072767;28;19908;-74
2024/01/03 03:28:33;;;;;;;;;;;15.90;83.70;;;;;;5072757;28;19908;-74
2024/01/03 03:30:58;;;;;;;;;;;16.00;83.60;;;;;;5072648;28;20290;-74
2024/01/03 03:33:24;;;;;;;;;;;15.90;83.50;;;;;;5072724;28;19909;-74
2024/01/03 03:35:50;;;;;;;;;;;15.90;83.80;;;;;;5072787;28;20456;-74
2024/01/03 03:38:16;;;;;;;;;;;16.00;83.30;;;;;;5072285;28;19916;-74
2024/01/03 03:40:41;;;;;;;;;;;15.90;83.50;;;;;;5073103;28;19909;-74
2024/01/03 03:43:07;;;;;;;;;;;15.90;83.00;;;;;;5072420;28;19908;-74
2024/01/03 03:45:32;;;;;;;;;;;15.90;83.70;;;;;;5072542;28;20378;-74
2024/01/03 03:47:58;;;;;;;;;;;15.90;83.50;;;;;;5072427;28;20006;-74
2024/01/03 03:50:23;;;;;;;;;;;15.90;83.60;;;;;;5072474;28;20043;-74
2024/01/03 03:52:48;;;;;;;;;;;15.90;83.30;;;;;;5072648;28;19912;-74
2024/01/03 03:55:15;;;;;;;;;;;15.90;84.20;;;;;;5072341;28;19908;-74
2024/01/03 03:57:40;;;;;;;;;;;16.00;84.00;;;;;;5072503;28;20325;-75
2024/01/03 04:00:07;;;;;;;;;;;15.90;83.10;;;;;;5072259;28;19970;-74
2024/01/03 04:02:32;;;;;;;;;;;15.90;83.20;;;;;;5072122;28;20351;-75
2024/01/03 04:04:58;;;;;;;;;;;15.90;83.20;;;;;;5072323;28;20010;-74
2024/01/03 04:07:24;;;;;;;;;;;15.90;83.60;;;;;;5072300;28;19908;-75
2024/01/03 04:09:49;;;;;;;;;;;15.80;83.10;;;;;;5072794;28;19923;-74
2024/01/03 04:12:15;;;;;;;;;;;16.00;83.70;;;;;;5072429;28;19908;-74
2024/01/03 04:14:40;;;;;;;;;;;15.90;83.30;;;;;;5072258;28;20418;-74
2024/01/03 04:17:06;;;;;;;;;;;15.90;83.80;;;;;;5072005;28;20391;-74
2024/01/03 04:19:31;;;;;;;;;;;15.80;83.60;;;;;;5072122;28;20010;-75
2024/01/03 04:22:00;;;;;;;;;;;15.90;83.70;;;;;;5072154;28;19912;-74
2024/01/03 04:24:25;;;;;;;;;;;15.90;78.60;;;;;;5075683;28;19953;-74
2024/01/03 04:26:54;;;;;;;;;;;15.90;83.80;;;;;;5075995;28;19909;-74
2024/01/03 04:29:19;;;;;;;;;;;15.90;83.30;;;;;;5076210;28;19950;-75
2024/01/03 04:31:45;;;;;;;;;;;15.80;83.30;;;;;;5074646;28;19951;-74
2024/01/03 04:34:10;;;;;;;;;;;15.90;83.00;;;;;;5075793;28;19908;-74
2024/01/03 04:36:36;;;;;;;;;;;15.80;83.80;;;;;;5075826;28;20302;-75
2024/01/03 04:39:01;;;;;;;;;;;15.80;83.50;;;;;;5076200;28;19917;-74
2024/01/03 04:41:27;;;;;;;;;;;15.90;83.50;;;;;;5075628;28;20007;-74
2024/01/03 04:43:52;;;;;;;;;;;15.90;84.00;;;;;;5075748;28;19915;-74
2024/01/03 04:46:18;;;;;;;;;;;15.90;84.00;;;;;;5075606;28;19912;-74
2024/01/03 04:48:43;;;;;;;;;;;15.90;83.80;;;;;;5075669;28;19990;-74
2024/01/03 04:51:09;;;;;;;;;;;15.90;83.50;;;;;;5075703;28;19909;-74
2024/01/03 04:53:34;;;;;;;;;;;15.90;83.50;;;;;;5075586;28;19909;-74
2024/01/03 04:56:00;;;;;;;;;;;15.90;83.70;;;;;;5075470;28;19908;-74
2024/01/03 04:58:25;;;;;;;;;;;16.00;84.00;;;;;;5075246;28;19916;-74
2024/01/03 05:00:51;;;;;;;;;;;15.90;83.60;;;;;;5075710;28;19940;-74
2024/01/03 05:03:17;;;;;;;;;;;16.00;83.30;;;;;;5075018;28;20432;-74
2024/01/03 05:05:42;;;;;;;;;;;16.00;83.80;;;;;;5075840;28;19915;-73
2024/01/03 05:08:08;;;;;;;;;;;15.90;83.50;;;;;;5075669;28;20019;-74
2024/01/03 05:10:33;;;;;;;;;;;16.00;83.50;;;;;;5075147;28;19913;-74
2024/01/03 05:12:58;;;;;;;;;;;16.00;83.40;;;;;;5075151;28;20034;-74
2024/01/03 05:15:24;;;;;;;;;;;15.90;83.70;;;;;;5075144;28;20375;-74
2024/01/03 05:17:51;;;;;;;;;;;15.90;83.50;;;;;;5075033;28;19917;-73
2024/01/03 05:20:16;;;;;;;;;;;16.00;83.60;;;;;;5075098;28;19908;-74
2024/01/03 05:22:42;;;;;;;;;;;16.10;83.60;;;;;;5074992;28;20402;-74
2024/01/03 05:25:08;;;;;;;;;;;16.00;83.80;;;;;;5075083;28;19909;-74
2024/01/03 05:27:34;;;;;;;;;;;16.00;83.50;;;;;;5075198;28;20275;-74
2024/01/03 05:29:59;;;;;;;;;;;16.10;83.60;;;;;;5075060;28;19916;-74
2024/01/03 05:32:25;;;;;;;;;;;16.00;83.90;;;;;;5074801;28;20366;-74
2024/01/03 05:34:50;;;;;;;;;;;16.00;83.30;;;;;;5075336;28;20370;-74
2024/01/03 05:37:16;;;;;;;;;;;16.00;84.30;;;;;;5074721;28;19909;-74
2024/01/03 05:39:41;;;;;;;;;;;16.00;83.90;;;;;;5074772;28;19916;-74
2024/01/03 05:42:08;;;;;;;;;;;16.00;83.60;;;;;;5056829;28;19916;-76
2024/01/03 05:44:33;;;;;;;;;;;16.00;83.50;;;;;;5075025;28;19999;-74
2024/01/03 05:47:00;;;;;;;;;;;15.80;83.00;;;;;;5074737;28;20410;-74
2024/01/03 05:49:25;;;;;;;;;;;16.00;83.80;;;;;;5074539;28;20390;-74
2024/01/03 05:51:51;;;;;;;;;;;16.00;83.60;;;;;;5074455;28;19908;-74
2024/01/03 05:54:16;;;;;;;;;;;16.00;83.80;;;;;;5074564;28;19908;-76
2024/01/03 05:56:42;;;;;;;;;;;16.00;83.80;;;;;;5074454;28;20435;-74
2024/01/03 05:59:07;;;;;;;;;;;16.00;83.70;;;;;;5074325;28;19917;-74
2024/01/03 06:01:32;;;;;;;;;;;16.00;83.60;;;;;;5074153;28;19909;-74
2024/01/03 06:03:58;;;;;;;;;;;15.90;83.40;;;;;;5074433;28;19931;-74
2024/01/03 06:06:23;;;;;;;;;;;16.10;84.10;;;;;;5074241;28;19959;-74
2024/01/03 06:08:50;;;;;;;;;;;16.00;83.80;;;;;;5074160;28;19915;-74
2024/01/03 06:11:17;;;;;;;;;;;15.90;84.20;;;;;;5073746;28;21620;-75
2024/01/03 06:13:42;;;;;;;;;;;15.90;84.10;;;;;;5074081;28;19909;-75
2024/01/03 06:16:08;;;;;;;;;;;16.00;83.50;;;;;;5074398;28;19948;-74
2024/01/03 06:18:34;;;;;;;;;;;16.00;84.40;;;;;;5073920;28;19970;-75
2024/01/03 06:20:59;;;;;;;;;;;16.30;84.00;;;;;;5074011;28;19943;-74
2024/01/03 06:23:25;;;;;;;;;;;15.90;83.90;;;;;;5073951;28;19909;-74
2024/01/03 06:25:52;;;;;;;;;;;16.00;84.10;;;;;;5073848;28;19915;-78
2024/01/03 06:28:17;;;;;;;;;;;15.90;83.60;;;;;;5079341;28;19909;-76
2024/01/03 06:30:43;;;;;;;;;;;16.00;83.80;;;;;;5074712;28;19961;-76
2024/01/03 06:33:09;;;;;;;;;;;16.10;84.20;;;;;;5074567;28;19912;-73
2024/01/03 06:35:35;;;;;;;;;;;16.00;84.10;;;;;;5073952;28;20364;-73
2024/01/03 06:38:03;;;;;;;;;;;15.90;83.70;;;;;;5073837;28;19917;-73
2024/01/03 06:40:30;;;;;;;;;;;16.00;84.10;;;;;;5073770;28;20317;-74
2024/01/03 06:42:56;;;;;;;;;;;16.00;84.10;;;;;;5073857;28;19909;-73
2024/01/03 06:45:22;;;;;;;;;;;15.90;84.20;;;;;;5073384;28;20449;-74
2024/01/03 06:47:48;;;;;;;;;;;16.00;83.90;;;;;;5073377;28;20543;-73
2024/01/03 06:50:14;;;;;;;;;;;15.70;83.70;;;;;;5073404;28;19982;-73
2024/01/03 06:52:40;;;;;;;;;;;16.00;84.20;;;;;;5073235;28;19909;-73
2024/01/03 06:55:06;;;;;;;;;;;15.90;83.70;;;;;;5073590;28;19908;-74
2024/01/03 06:57:32;;;;;;;;;;;16.00;82.10;;;;;;5073364;28;19915;-74
2024/01/03 06:59:58;;;;;;;;;;;16.10;83.40;;;;;;5073592;28;19908;-75
2024/01/03 07:02:24;;;;;;;;;;;15.90;83.40;;;;;;5073127;28;19909;-76
2024/01/03 07:04:50;;;;;;;;;;;16.00;83.70;;;;;;5072975;28;20314;-76
2024/01/03 07:07:17;;;;;;;;;;;16.20;83.70;;;;;;5073213;28;19936;-76
2024/01/03 07:09:43;;;;;;;;;;;16.00;83.60;;;;;;5073126;28;19908;-77
2024/01/03 07:12:08;;;;;;;;;;;15.80;83.00;;;;;;5073001;28;19913;-73
2024/01/03 07:14:33;;;;;;;;;;;16.10;83.60;;;;;;5073039;28;19908;-72
2024/01/03 07:16:59;;;;;;;;;;;15.90;83.70;;;;;;5072803;28;19909;-73
2024/01/03 07:19:24;;;;;;;;;;;16.00;83.70;;;;;;5072813;28;19960;-72
2024/01/03 07:21:50;;;;;;;;;;;15.90;83.50;;;;;;5072839;28;19916;-72
2024/01/03 07:24:16;;;;;;;;;;;15.90;83.70;;;;;;5073170;28;19939;-73
2024/01/03 07:26:41;;;;;;;;;;;15.70;83.10;;;;;;5072765;28;19909;-72
2024/01/03 07:29:07;;;;;;;;;;;15.90;83.10;;;;;;5073342;28;19944;-76
2024/01/03 07:31:32;;;;;;;;;;;16.00;83.70;;;;;;5072805;28;19913;-76
2024/01/03 07:33:58;;;;;;;;;;;16.00;83.50;;;;;;5072745;28;20007;-76
2024/01/03 07:36:23;;;;;;;;;;;15.90;83.30;;;;;;5072848;28;19994;-76
2024/01/03 07:38:49;;;;;;;;;;;15.90;83.70;;;;;;5072630;28;19916;-76
2024/01/03 07:41:21;;;;;;;;;;;15.90;82.90;;;;;;5073330;28;19908;-73
2024/01/03 07:43:46;;;;;;;;;;;15.90;78.10;;;;;;5072656;28;19954;-73
2024/01/03 07:46:14;;;;;;;;;;;15.80;83.20;;;;;;5072620;28;19913;-72
2024/01/03 07:48:39;;;;;;;;;;;15.90;83.40;;;;;;5072509;28;19909;-73
2024/01/03 07:51:07;;;;;;;;;;;15.90;83.30;;;;;;5072460;28;20354;-73
2024/01/03 07:53:32;;;;;;;;;;;16.00;83.40;;;;;;5072633;28;19909;-73
2024/01/03 07:55:58;;;;;;;;;;;15.80;83.10;;;;;;5072449;28;20291;-73
2024/01/03 07:58:26;;;;;;;;;;;15.40;82.00;;;;;;5072117;28;19921;-76
2024/01/03 08:00:51;;;;;;;;;;;15.90;83.20;;;;;;5072551;28;19908;-74
2024/01/03 08:03:17;;;;;;;;;;;15.80;82.80;;;;;;5072289;28;20283;-74
2024/01/03 08:05:42;;;;;;;;;;;16.00;83.30;;;;;;5072739;28;19958;-76
2024/01/03 08:08:08;;;;;;;;;;;15.90;83.30;;;;;;5072741;28;20357;-72
2024/01/03 08:10:33;;;;;;;;;;;16.10;83.60;;;;;;5073483;28;19913;-74
2024/01/03 08:12:59;;;;;;;;;;;15.80;84.10;;;;;;5072328;28;19917;-76
2024/01/03 08:15:25;;;;;;;;;;;15.80;83.60;;;;;;5072318;28;19909;-76
2024/01/03 08:17:50;;;;;;;;;;;15.90;83.30;;;;;;5072695;28;20417;-77
2024/01/03 08:20:16;;;;;;;;;;;15.80;83.60;;;;;;5072714;28;20006;-76
2024/01/03 08:22:42;;;;;;;;;;;15.90;83.20;;;;;;5072513;28;20286;-76
2024/01/03 08:25:10;;;;;;;;;;;16.00;83.40;;;;;;5072194;28;19920;-71
2024/01/03 08:27:36;;;;;;;;;;;15.80;84.20;;;;;;5072690;28;19912;-75
2024/01/03 08:30:02;;;;;;;;;;;15.80;83.40;;;;;;5072267;28;19916;-74
2024/01/03 08:32:28;;;;;;;;;;;16.00;82.80;;;;;;5072131;28;19909;-74
2024/01/03 08:34:54;;;;;;;;;;;15.80;83.50;;;;;;5072406;28;19916;-75
2024/01/03 08:37:20;;;;;;;;;;;15.90;83.60;;;;;;5072246;28;20326;-75
2024/01/03 08:39:46;;;;;;;;;;;15.90;83.50;;;;;;5072022;28;19923;-75
2024/01/03 08:42:11;;;;;;;;;;;15.80;83.50;;;;;;5072137;28;19908;-76
2024/01/03 08:44:37;;;;;;;;;;;15.80;83.50;;;;;;5072141;28;19909;-75
2024/01/03 08:47:02;;;;;;;;;;;15.80;83.40;;;;;;5072062;28;19909;-73
2024/01/03 08:49:28;;;;;;;;;;;15.80;83.40;;;;;;5072131;28;20345;-74
2024/01/03 08:51:55;;;;;;;;;;;15.80;83.60;;;;;;5072042;28;19988;-74
2024/01/03 08:54:21;;;;;;;;;;;15.80;83.40;;;;;;5072209;28;19916;-74
2024/01/03 08:56:50;;;;;;;;;;;15.80;83.60;;;;;;5072051;28;20367;-72
2024/01/03 08:59:15;;;;;;;;;;;15.90;78.60;;;;;;5071842;28;20267;-74
2024/01/03 09:01:41;;;;;;;;;;;15.80;83.00;;;;;;5076513;28;19916;-77
2024/01/03 09:04:06;;;;;;;;;;;15.80;83.20;;;;;;5074046;28;20073;-73
2024/01/03 09:06:37;;;;;;;;;;;15.80;83.40;;;;;;5071898;28;19909;-75
2024/01/03 09:09:03;;;;;;;;;;;15.80;81.60;;;;;;5073258;28;20256;-75
2024/01/03 09:11:29;;;;;;;;;;;15.80;83.60;;;;;;5075314;28;19920;-75
2024/01/03 09:13:56;;;;;;;;;;;15.80;83.90;;;;;;5075487;28;19909;-80
2024/01/03 09:16:23;;;;;;;;;;;15.80;83.70;;;;;;5075165;28;19912;-73
2024/01/03 09:18:51;;;;;;;;;;;15.60;83.80;;;;;;5075381;28;19921;-75
2024/01/03 09:21:17;;;;;;;;;;;15.70;83.30;;;;;;5075940;28;19993;-75
2024/01/03 09:23:43;;;;;;;;;;;15.80;83.80;;;;;;5076740;28;19908;-71
2024/01/03 09:26:12;;;;;;;;;;;15.80;83.50;;;;;;5075030;28;19912;-75
2024/01/03 09:28:38;;;;;;;;;;;15.70;78.00;;;;;;5075208;28;19912;-74
2024/01/03 09:31:05;;;;;;;;;;;15.80;83.60;;;;;;5075321;28;19909;-73
2024/01/03 09:33:31;;;;;;;;;;;15.70;83.80;;;;;;5074987;28;19909;-76
2024/01/03 09:35:56;;;;;;;;;;;15.70;83.30;;;;;;5075050;28;19999;-74
2024/01/03 09:38:22;;;;;;;;;;;15.80;83.80;;;;;;5075078;28;19939;-76
2024/01/03 09:40:48;;;;;;;;;;;15.70;83.70;;;;;;5074949;28;20361;-78
2024/01/03 09:43:14;;;;;;;;;;;15.80;83.60;;;;;;5074852;28;19999;-79
2024/01/03 09:45:42;;;;;;;;;;;15.80;84.10;;;;;;5074783;28;19931;-79
2024/01/03 09:48:11;;;;;;;;;;;15.80;83.70;;;;;;5074802;28;19909;-76
2024/01/03 09:50:37;;;;;;;;;;;15.80;83.80;;;;;;5074691;28;19912;-73
2024/01/03 09:53:03;;;;;;;;;;;15.80;83.80;;;;;;5075041;28;19912;-73
2024/01/03 09:55:29;;;;;;;;;;;15.70;83.50;;;;;;5074561;28;19916;-73
2024/01/03 09:57:55;;;;;;;;;;;15.80;84.00;;;;;;5074409;28;20011;-73
2024/01/03 10:00:20;;;;;;;;;;;15.70;83.90;;;;;;5074498;28;19988;-73
2024/01/03 10:02:47;;;;;;;;;;;15.80;83.50;;;;;;5074161;28;20295;-73
2024/01/03 10:05:20;;;;;;;;;;;15.70;83.90;;;;;;5074470;28;19921;-73
2024/01/03 10:07:46;;;;;;;;;;;15.70;78.60;;;;;;5074319;28;19954;-72
2024/01/03 10:10:11;;;;;;;;;;;15.70;83.90;;;;;;5074309;28;19908;-72
2024/01/03 10:12:37;;;;;;;;;;;15.80;83.90;;;;;;5074190;28;19909;-73
2024/01/03 10:15:15;;;;;;;;;;;15.80;84.00;;;;;;5074166;28;19930;-72
2024/01/03 10:17:42;;;;;;;;;;;15.80;78.70;;;;;;5074039;28;19919;-72
2024/01/03 10:20:22;;;;;;;;;;;15.80;84.30;;;;;;5073479;28;19915;-73
2024/01/03 10:22:48;;;;;;;;;;;15.60;78.80;;;;;;5074090;28;19913;-73
2024/01/03 10:25:15;;;;;;;;;;;15.70;83.70;;;;;;5074130;28;19909;-72
2024/01/03 10:27:41;;;;;;;;;;;15.70;82.90;;;;;;5074432;28;20004;-77
2024/01/03 10:30:14;;;;;;;;;;;15.70;84.10;;;;;;5073897;28;20007;-78
2024/01/03 10:32:39;;;;;;;;;;;15.70;79.00;;;;;;5073746;28;20006;-78
2024/01/03 10:35:25;;;;;;;;;;;15.70;84.10;;;;;;5074041;28;19952;-76
2024/01/03 10:37:51;;;;;;;;;;;15.80;78.80;;;;;;5073769;28;19943;-71
2024/01/03 10:40:16;;;;;;;;;;;15.90;84.10;;;;;;5073703;28;19908;-72
2024/01/03 10:42:42;;;;;;;;;;;15.80;83.90;;;;;;5073559;28;19916;-73
2024/01/03 10:45:08;;;;;;;;;;;15.80;83.80;;;;;;5073685;28;19915;-70
2024/01/03 10:47:34;;;;;;;;;;;15.80;82.50;;;;;;5073429;28;19955;-72
2024/01/03 10:50:02;;;;;;;;;;;15.80;83.90;;;;;;5073424;28;19964;-72
2024/01/03 10:52:30;;;;;;;;;;;15.80;83.70;;;;;;5073542;28;19908;-73
2024/01/03 10:54:57;;;;;;;;;;;15.80;84.30;;;;;;5073379;28;19916;-75
2024/01/03 10:57:23;;;;;;;;;;;15.80;84.20;;;;;;5073266;28;19915;-78
2024/01/03 10:59:55;;;;;;;;;;;15.70;83.80;;;;;;5073302;28;19912;-77
2024/01/03 11:02:24;;;;;;;;;;;15.80;83.80;;;;;;5073335;28;19940;-77
2024/01/03 11:04:54;;;;;;;;;;;15.80;83.70;;;;;;5073045;28;20398;-79
2024/01/03 11:07:32;;;;;;;;;;;15.80;84.50;;;;;;5073555;28;20359;-79
2024/01/03 11:09:58;;;;;;;;;;;15.80;79.00;;;;;;5073461;28;19969;-77
2024/01/03 11:12:28;;;;;;;;;;;15.80;83.90;;;;;;5073112;28;19916;-77
2024/01/03 11:14:54;;;;;;;;;;;15.70;79.10;;;;;;5073416;28;19996;-73
2024/01/03 11:17:33;;;;;;;;;;;15.70;84.30;;;;;;5073119;28;20046;-74
2024/01/03 11:20:08;;;;;;;;;;;15.70;78.90;;;;;;5072936;28;20032;-74
2024/01/03 11:22:52;;;;;;;;;;;15.70;79.10;;;;;;5072934;28;20481;-74
2024/01/03 11:25:37;;;;;;;;;;;15.70;79.00;;;;;;5072892;28;20018;-73
2024/01/03 11:28:21;;;;;;;;;;;15.80;84.60;;;;;;5072631;28;19909;-75
2024/01/03 11:30:53;;;;;;;;;;;15.80;79.20;;;;;;5072839;28;19915;-77
2024/01/03 11:33:25;;;;;;;;;;;16.50;79.20;;;;;;5072682;28;19912;-86
2024/01/03 11:35:51;;;;;;;;;;;16.00;79.00;;;;;;5072782;28;19909;-73
2024/01/03 11:38:35;;;;;;;;;;;15.90;84.00;;;;;;5072710;28;19991;-76
2024/01/03 11:41:00;;;;;;;;;;;15.90;78.60;;;;;;5072786;28;19953;-76
2024/01/03 11:43:26;;;;;;;;;;;16.10;83.60;;;;;;5072775;28;19909;-75
2024/01/03 11:46:04;;;;;;;;;;;16.00;83.70;;;;;;5072697;28;19908;-75
2024/01/03 11:48:30;;;;;;;;;;;16.10;83.40;;;;;;5072765;28;19931;-77
2024/01/03 11:50:56;;;;;;;;;;;16.00;83.40;;;;;;5072546;28;19909;-76
2024/01/03 11:53:21;;;;;;;;;;;16.30;83.80;;;;;;5072623;28;19909;-77
2024/01/03 11:55:50;;;;;;;;;;;16.00;83.80;;;;;;5072543;28;19916;-75
2024/01/03 11:58:16;;;;;;;;;;;16.00;78.50;;;;;;5072869;28;20011;-77
2024/01/03 12:00:41;;;;;;;;;;;16.00;83.50;;;;;;5072985;28;19952;-77
2024/01/03 12:03:07;;;;;;;;;;;15.90;83.40;;;;;;5072204;28;19927;-79
2024/01/03 12:05:42;;;;;;;;;;;15.90;83.90;;;;;;5072723;28;19947;-77
2024/01/03 12:08:08;;;;;;;;;;;15.90;83.80;;;;;;5072424;28;19916;-77
2024/01/03 12:10:34;;;;;;;;;;;15.90;84.10;;;;;;5072547;28;19912;-78
2024/01/03 12:12:59;;;;;;;;;;;15.90;84.10;;;;;;5072518;28;19915;-74
2024/01/03 12:15:28;;;;;;;;;;;15.90;84.40;;;;;;5072399;28;20012;-72
2024/01/03 12:18:02;;;;;;;;;;;15.90;84.40;;;;;;5072310;28;19954;-73
2024/01/03 12:20:28;;;;;;;;;;;15.80;84.30;;;;;;5072365;28;20375;-73
2024/01/03 12:22:53;;;;;;;;;;;15.90;84.30;;;;;;5072287;28;19908;-73
2024/01/03 12:25:26;;;;;;;;;;;15.80;84.30;;;;;;5072240;28;19915;-73
2024/01/03 12:27:56;;;;;;;;;;;15.80;79.10;;;;;;5072993;28;19916;-73
2024/01/03 12:30:22;;;;;;;;;;;15.80;79.40;;;;;;5073096;28;20323;-77
2024/01/03 12:32:49;;;;;;;;;;;15.90;84.00;;;;;;5073767;28;19916;-77
2024/01/03 12:35:15;;;;;;;;;;;15.80;84.30;;;;;;5073287;28;19915;-77
2024/01/03 12:37:43;;;;;;;;;;;15.70;84.10;;;;;;5073594;28;20371;-78
2024/01/03 12:40:11;;;;;;;;;;;15.80;84.20;;;;;;5072825;28;19920;-77
2024/01/03 12:42:37;;;;;;;;;;;15.80;82.20;;;;;;5072894;28;20290;-78
2024/01/03 12:45:03;;;;;;;;;;;15.90;84.60;;;;;;5075458;28;20003;-76
2024/01/03 12:47:29;;;;;;;;;;;15.80;83.40;;;;;;5076480;28;19944;-76
2024/01/03 12:49:55;;;;;;;;;;;15.80;84.50;;;;;;5076389;28;19933;-74
2024/01/03 12:52:25;;;;;;;;;;;15.80;84.60;;;;;;5076406;28;19909;-74
2024/01/03 12:54:51;;;;;;;;;;;15.80;79.50;;;;;;5076803;28;19978;-75
2024/01/03 12:57:17;;;;;;;;;;;15.80;84.90;;;;;;5076251;28;20354;-75
2024/01/03 12:59:43;;;;;;;;;;;15.80;84.60;;;;;;5076670;28;19961;-75
2024/01/03 13:02:09;;;;;;;;;;;15.80;84.10;;;;;;5076440;28;19913;-75
2024/01/03 13:04:37;;;;;;;;;;;15.70;84.70;;;;;;5075877;28;19965;-75
2024/01/03 13:07:03;;;;;;;;;;;15.70;84.10;;;;;;5076268;28;19999;-75
2024/01/03 13:09:29;;;;;;;;;;;15.70;84.20;;;;;;5058252;28;19966;-75
2024/01/03 13:11:55;;;;;;;;;;;15.70;84.70;;;;;;5075742;28;19935;-75
2024/01/03 13:14:21;;;;;;;;;;;15.80;84.40;;;;;;5075118;28;20053;-75
2024/01/03 13:16:46;;;;;;;;;;;15.80;84.40;;;;;;5075620;28;20003;-75
2024/01/03 13:19:12;;;;;;;;;;;15.70;84.70;;;;;;5075430;28;20002;-75
2024/01/03 13:21:38;;;;;;;;;;;15.70;84.50;;;;;;5075153;28;19980;-75
2024/01/03 13:24:05;;;;;;;;;;;15.70;84.40;;;;;;5075216;28;19909;-74
2024/01/03 13:26:31;;;;;;;;;;;15.70;84.10;;;;;;5075190;28;19909;-75
2024/01/03 13:28:57;;;;;;;;;;;15.70;84.40;;;;;;5075105;28;19916;-75
2024/01/03 13:31:23;;;;;;;;;;;15.70;84.30;;;;;;5075591;28;19909;-75
2024/01/03 13:33:49;;;;;;;;;;;15.70;84.50;;;;;;5075262;28;19919;-75
2024/01/03 13:36:15;;;;;;;;;;;15.70;83.80;;;;;;5075218;28;20031;-75
2024/01/03 13:38:41;;;;;;;;;;;15.70;84.20;;;;;;5075125;28;19922;-75
2024/01/03 13:41:07;;;;;;;;;;;15.70;84.30;;;;;;5075103;28;19915;-75
2024/01/03 13:43:37;;;;;;;;;;;15.70;84.30;;;;;;5075071;28;20325;-74
2024/01/03 13:46:06;;;;;;;;;;;15.60;78.80;;;;;;5075116;28;19951;-74
2024/01/03 13:48:32;;;;;;;;;;;15.70;84.30;;;;;;5074928;28;20393;-75
2024/01/03 13:50:58;;;;;;;;;;;15.70;84.10;;;;;;5074846;28;19908;-75
2024/01/03 13:53:24;;;;;;;;;;;15.60;84.40;;;;;;5074883;28;20290;-76
2024/01/03 13:55:50;;;;;;;;;;;15.70;84.30;;;;;;5073650;28;19951;-72
2024/01/03 13:58:16;;;;;;;;;;;15.60;84.10;;;;;;5074747;28;19956;-73
2024/01/03 14:00:42;;;;;;;;;;;15.70;84.30;;;;;;5074906;28;20299;-76
2024/01/03 14:03:07;;;;;;;;;;;15.60;83.70;;;;;;5074202;28;19954;-76
2024/01/03 14:05:35;;;;;;;;;;;15.60;84.20;;;;;;5074571;28;19912;-75
2024/01/03 14:08:00;;;;;;;;;;;15.60;84.30;;;;;;5074643;28;20259;-74
2024/01/03 14:10:26;;;;;;;;;;;15.70;84.40;;;;;;5074173;28;19916;-75
2024/01/03 14:12:52;;;;;;;;;;;15.60;84.30;;;;;;5074304;28;19909;-72